Time;durP1;ratioP1;P1;durP2;ratioP2;P2;SDS_P1;SDS_P2;PMS_P1;PMS_P2;Temp;Humidity;BMP_temperature;BMP_pressure;BME280_temperature;BME280_humidity;BME280_pressure;Samples;Min_cycle;Max_cycle;Signal;HPM_P1;HPM_P2
2024/03/25 00:01:46;;;;;;;1.97;1.43;;;7.00;99.90;;;;;;4929305;28;20481;-69
2024/03/25 00:04:12;;;;;;;6.73;1.67;;;7.00;99.90;;;;;;4927813;28;20450;-69
2024/03/25 00:06:39;;;;;;;2.10;1.30;;;6.90;99.90;;;;;;4920350;28;20533;-69
2024/03/25 00:09:07;;;;;;;4.30;2.57;;;7.00;99.90;;;;;;4930866;28;20463;-69
2024/03/25 00:11:34;;;;;;;2.50;1.77;;;6.90;99.90;;;;;;4931183;28;20983;-69
2024/03/25 00:14:00;;;;;;;4.03;2.00;;;6.90;99.90;;;;;;4931156;28;20442;-69
2024/03/25 00:16:28;;;;;;;6.40;2.07;;;6.90;99.90;;;;;;4926112;28;20438;-70
2024/03/25 00:18:54;;;;;;;9.10;1.77;;;6.90;99.90;;;;;;4925987;28;20434;-70
2024/03/25 00:21:21;;;;;;;5.33;2.70;;;6.90;99.90;;;;;;4935279;28;20451;-69
2024/03/25 00:23:50;;;;;;;3.87;2.30;;;6.90;99.90;;;;;;4929484;28;20640;-69
2024/03/25 00:26:17;;;;;;;3.63;2.10;;;6.90;99.90;;;;;;4927343;28;20453;-69
2024/03/25 00:28:43;;;;;;;7.50;3.97;;;6.80;99.90;;;;;;4925584;28;20991;-69
2024/03/25 00:31:10;;;;;;;3.77;2.30;;;6.80;99.90;;;;;;4928499;28;20466;-69
2024/03/25 00:33:37;;;;;;;11.47;2.00;;;6.80;99.90;;;;;;4924616;28;20442;-69
2024/03/25 00:36:05;;;;;;;18.57;3.57;;;6.80;99.90;;;;;;4923350;28;20461;-69
2024/03/25 00:38:31;;;;;;;2.93;0.93;;;6.80;99.90;;;;;;4918607;28;20950;-69
2024/03/25 00:40:58;;;;;;;7.17;3.60;;;6.80;99.90;;;;;;4928959;28;20449;-70
2024/03/25 00:43:24;;;;;;;9.20;1.83;;;6.80;99.90;;;;;;4938274;28;20458;-70
2024/03/25 00:45:52;;;;;;;7.27;1.93;;;6.90;99.90;;;;;;4926949;28;20466;-69
2024/03/25 00:48:18;;;;;;;4.77;2.47;;;6.90;99.90;;;;;;4942200;28;20666;-69
2024/03/25 00:50:46;;;;;;;8.80;4.03;;;6.90;99.90;;;;;;4934879;28;20486;-69
2024/03/25 00:53:13;;;;;;;3.20;2.10;;;6.80;99.90;;;;;;4944155;28;20736;-69
2024/03/25 00:55:40;;;;;;;3.60;2.20;;;6.80;99.90;;;;;;4939754;28;20456;-68
2024/03/25 00:58:05;;;;;;;3.03;2.57;;;6.80;99.90;;;;;;4935175;28;20454;-70
2024/03/25 01:00:32;;;;;;;13.47;3.83;;;6.70;99.90;;;;;;4939981;28;20460;-69
2024/03/25 01:02:58;;;;;;;7.60;2.60;;;6.80;99.90;;;;;;4938575;28;20594;-69
2024/03/25 01:05:25;;;;;;;13.03;2.60;;;6.60;99.90;;;;;;4939249;28;20493;-70
2024/03/25 01:07:52;;;;;;;4.07;2.50;;;6.60;99.90;;;;;;4926296;28;20440;-69
2024/03/25 01:10:20;;;;;;;7.73;2.90;;;6.70;99.90;;;;;;4919690;28;20449;-69
2024/03/25 01:12:46;;;;;;;15.90;2.30;;;6.70;99.90;;;;;;4924972;28;20483;-69
2024/03/25 01:15:13;;;;;;;6.73;3.03;;;6.80;99.90;;;;;;4919932;28;20434;-68
2024/03/25 01:17:39;;;;;;;4.73;2.43;;;6.80;99.90;;;;;;4930196;28;20443;-68
2024/03/25 01:20:07;;;;;;;7.23;3.50;;;6.70;99.90;;;;;;4926602;28;20517;-68
2024/03/25 01:22:34;;;;;;;8.80;2.07;;;6.60;99.90;;;;;;4923216;28;20343;-70
2024/03/25 01:25:02;;;;;;;16.50;4.10;;;6.70;99.90;;;;;;4929323;28;20490;-69
2024/03/25 01:27:28;;;;;;;8.87;2.50;;;6.70;99.90;;;;;;4934861;28;20443;-70
2024/03/25 01:29:54;;;;;;;8.93;3.70;;;6.70;99.90;;;;;;4920073;28;20463;-70
2024/03/25 01:32:22;;;;;;;5.00;2.00;;;6.70;99.90;;;;;;4913330;28;20228;-68
2024/03/25 01:34:49;;;;;;;9.07;3.93;;;6.80;99.90;;;;;;4914873;28;20533;-70
2024/03/25 01:37:18;;;;;;;15.70;2.90;;;6.60;99.90;;;;;;4919302;28;20972;-68
2024/03/25 01:39:44;;;;;;;14.00;4.70;;;6.60;99.90;;;;;;4917043;28;20495;-69
2024/03/25 01:42:13;;;;;;;11.27;5.63;;;6.60;99.90;;;;;;4919435;28;20502;-69
2024/03/25 01:44:39;;;;;;;17.40;3.77;;;6.60;99.90;;;;;;4919511;28;20544;-69
2024/03/25 01:47:06;;;;;;;16.20;4.80;;;6.60;99.90;;;;;;4917426;28;20467;-69
2024/03/25 01:49:33;;;;;;;10.33;4.70;;;6.60;99.90;;;;;;4922275;28;20984;-69
2024/03/25 01:51:59;;;;;;;13.27;3.30;;;6.60;99.90;;;;;;4920866;28;20480;-69
2024/03/25 01:54:27;;;;;;;8.20;4.03;;;6.50;99.90;;;;;;4921951;28;22378;-69
2024/03/25 01:56:55;;;;;;;11.00;5.30;;;6.50;99.90;;;;;;4916974;28;20469;-69
2024/03/25 01:59:26;;;;;;;7.63;4.23;;;6.60;99.90;;;;;;4925578;28;20500;-69
2024/03/25 02:01:53;;;;;;;7.90;3.77;;;6.60;99.90;;;;;;4919405;28;20485;-69
2024/03/25 02:04:20;;;;;;;10.77;5.70;;;6.60;99.90;;;;;;4920558;28;20441;-69
2024/03/25 02:06:46;;;;;;;13.60;4.23;;;6.50;99.90;;;;;;4923287;28;20470;-69
2024/03/25 02:09:14;;;;;;;12.30;5.27;;;6.50;99.90;;;;;;4936924;28;20446;-69
2024/03/25 02:11:41;;;;;;;11.80;6.07;;;6.60;99.90;;;;;;4926254;28;20467;-69
2024/03/25 02:14:08;;;;;;;21.00;6.77;;;6.60;99.90;;;;;;4921456;28;20438;-69
2024/03/25 02:16:35;;;;;;;9.70;5.13;;;6.60;99.90;;;;;;4916420;28;20471;-69
2024/03/25 02:19:02;;;;;;;30.20;7.47;;;6.50;99.90;;;;;;4927982;28;20921;-69
2024/03/25 02:21:28;;;;;;;11.70;6.97;;;6.50;99.90;;;;;;4929146;28;20468;-69
2024/03/25 02:23:57;;;;;;;16.43;8.23;;;6.40;99.90;;;;;;4927752;28;20437;-70
2024/03/25 02:26:24;;;;;;;11.50;5.77;;;6.30;99.90;;;;;;4920542;28;20498;-69
2024/03/25 02:28:51;;;;;;;16.23;7.40;;;6.30;99.90;;;;;;4916915;28;20467;-69
2024/03/25 02:31:17;;;;;;;17.93;8.10;;;6.30;99.90;;;;;;4924844;28;20574;-69
2024/03/25 02:33:44;;;;;;;13.83;7.13;;;6.30;99.90;;;;;;4916837;28;20464;-69
2024/03/25 02:36:12;;;;;;;15.80;6.87;;;6.30;99.90;;;;;;4927771;28;20230;-69
2024/03/25 02:38:39;;;;;;;30.77;8.30;;;6.30;99.90;;;;;;4922968;28;20876;-69
2024/03/25 02:41:05;;;;;;;19.27;7.20;;;6.20;99.90;;;;;;4928547;28;21036;-69
2024/03/25 02:43:36;;;;;;;23.83;5.70;;;6.10;99.90;;;;;;4922780;28;20463;-69
2024/03/25 02:46:02;;;;;;;14.73;7.70;;;6.20;99.90;;;;;;4924330;28;20488;-69
2024/03/25 02:48:29;;;;;;;11.27;5.20;;;6.20;99.90;;;;;;4943408;28;20438;-69
2024/03/25 02:50:54;;;;;;;9.97;5.57;;;6.20;99.90;;;;;;4935680;28;20233;-69
2024/03/25 02:53:22;;;;;;;17.20;6.67;;;6.20;99.90;;;;;;4938302;28;20422;-69
2024/03/25 02:55:48;;;;;;;23.33;5.70;;;6.30;99.90;;;;;;4935719;28;20479;-69
2024/03/25 02:58:14;;;;;;;8.77;4.37;;;6.30;99.90;;;;;;4930716;28;20919;-69
2024/03/25 03:00:41;;;;;;;10.67;5.37;;;6.30;99.90;;;;;;4931893;28;21138;-69
2024/03/25 03:03:08;;;;;;;11.27;3.70;;;6.30;99.90;;;;;;4935024;28;20467;-67
2024/03/25 03:05:35;;;;;;;22.13;4.93;;;6.30;99.90;;;;;;4939174;28;21026;-68
2024/03/25 03:08:01;;;;;;;13.17;3.90;;;6.40;99.90;;;;;;4942145;28;20442;-68
2024/03/25 03:10:27;;;;;;;9.37;4.30;;;6.40;99.90;;;;;;4938999;28;20435;-67
2024/03/25 03:12:57;;;;;;;7.27;3.93;;;6.30;99.90;;;;;;4934554;28;20446;-68
2024/03/25 03:15:23;;;;;;;16.83;4.90;;;6.50;99.90;;;;;;4924677;28;20204;-68
2024/03/25 03:17:51;;;;;;;7.30;3.40;;;6.50;99.90;;;;;;4916130;28;20459;-68
2024/03/25 03:20:16;;;;;;;6.93;3.43;;;6.50;99.90;;;;;;4924421;28;20270;-68
2024/03/25 03:22:43;;;;;;;8.40;4.03;;;6.60;99.90;;;;;;4921492;28;20458;-68
2024/03/25 03:25:09;;;;;;;3.53;3.17;;;6.50;99.90;;;;;;4927494;28;20842;-68
2024/03/25 03:27:36;;;;;;;4.57;2.93;;;6.60;99.90;;;;;;4933456;28;20467;-69
2024/03/25 03:30:02;;;;;;;6.60;3.97;;;6.70;99.90;;;;;;4919003;28;20209;-68
2024/03/25 03:32:29;;;;;;;8.23;3.90;;;6.60;99.90;;;;;;4921192;28;20490;-69
2024/03/25 03:34:56;;;;;;;13.00;3.43;;;6.60;99.90;;;;;;4928742;28;20462;-69
2024/03/25 03:37:22;;;;;;;8.93;4.00;;;6.50;99.90;;;;;;4914576;28;20468;-69
2024/03/25 03:39:48;;;;;;;8.87;3.40;;;6.60;99.90;;;;;;4929635;28;20463;-69
2024/03/25 03:42:15;;;;;;;2.83;2.00;;;6.60;99.90;;;;;;4931601;28;20555;-69
2024/03/25 03:44:41;;;;;;;9.07;4.33;;;6.60;99.90;;;;;;4928312;28;20276;-69
2024/03/25 03:47:08;;;;;;;7.83;4.10;;;6.40;99.90;;;;;;4923326;28;21187;-69
2024/03/25 03:49:34;;;;;;;9.23;4.60;;;6.50;99.90;;;;;;4921401;28;20199;-69
2024/03/25 03:52:02;;;;;;;3.13;2.80;;;6.50;99.90;;;;;;4926995;28;20494;-69
2024/03/25 03:54:28;;;;;;;7.90;3.47;;;6.50;99.90;;;;;;4927611;28;20443;-69
2024/03/25 03:56:55;;;;;;;22.60;3.90;;;6.60;99.90;;;;;;4924927;28;20956;-70
2024/03/25 03:59:21;;;;;;;9.20;3.57;;;6.50;99.90;;;;;;4914724;28;20446;-69
2024/03/25 04:01:48;;;;;;;12.43;3.30;;;6.40;99.90;;;;;;4926692;28;20483;-69
2024/03/25 04:04:14;;;;;;;8.40;3.47;;;6.40;99.90;;;;;;4928318;28;20464;-69
2024/03/25 04:06:41;;;;;;;10.53;3.70;;;6.30;99.90;;;;;;4919813;28;20634;-70
2024/03/25 04:09:09;;;;;;;5.50;3.63;;;6.30;99.90;;;;;;4923416;28;20478;-69
2024/03/25 04:11:36;;;;;;;4.40;2.70;;;6.30;99.90;;;;;;4923333;28;21019;-69
2024/03/25 04:14:03;;;;;;;7.83;3.33;;;6.30;99.90;;;;;;4914978;28;20560;-68
2024/03/25 04:16:30;;;;;;;14.33;3.90;;;6.10;99.90;;;;;;4913744;28;20471;-68
2024/03/25 04:18:56;;;;;;;5.50;2.63;;;6.10;99.90;;;;;;4922203;28;20456;-68
2024/03/25 04:21:23;;;;;;;8.90;2.80;;;6.20;99.90;;;;;;4922422;28;20453;-68
2024/03/25 04:23:49;;;;;;;9.53;4.50;;;6.10;99.90;;;;;;4917990;28;20499;-68
2024/03/25 04:26:20;;;;;;;5.00;3.30;;;6.10;99.90;;;;;;4904999;28;20796;-69
2024/03/25 04:28:46;;;;;;;15.97;4.00;;;6.00;99.90;;;;;;4922961;28;20475;-69
2024/03/25 04:31:13;;;;;;;4.50;2.33;;;5.90;99.90;;;;;;4918928;28;20562;-69
2024/03/25 04:33:38;;;;;;;3.93;3.43;;;5.80;99.90;;;;;;4924854;28;20208;-69
2024/03/25 04:36:08;;;;;;;9.73;3.07;;;5.80;99.90;;;;;;4908951;28;20474;-69
